createdAt,value
2022-11-07T00:02:05.474Z,9.34
2022-11-07T00:06:12.817Z,9.38
2022-11-07T00:10:16.338Z,9.38
2022-11-07T00:14:20.040Z,9.40
2022-11-07T00:18:23.453Z,9.40
2022-11-07T00:22:28.295Z,9.41
2022-11-07T00:26:31.855Z,9.41
2022-11-07T00:30:35.004Z,9.42
2022-11-07T00:34:38.823Z,9.42
2022-11-07T00:38:43.777Z,9.43
2022-11-07T00:42:47.691Z,9.42
2022-11-07T00:46:50.768Z,9.43
2022-11-07T00:50:54.486Z,9.45
2022-11-07T00:54:58.956Z,9.47
2022-11-07T00:59:02.704Z,9.47
2022-11-07T01:03:23.895Z,9.48
2022-11-07T01:07:27.362Z,9.50
2022-11-07T01:11:32.519Z,9.53
2022-11-07T01:15:35.774Z,9.55
2022-11-07T01:19:39.235Z,9.57
2022-11-07T01:23:42.990Z,9.60
2022-11-07T01:27:47.791Z,9.63
2022-11-07T01:31:51.491Z,9.65
2022-11-07T01:35:54.703Z,9.69
2022-11-07T01:39:58.211Z,9.73
2022-11-07T01:44:05.517Z,9.77
2022-11-07T01:48:09.019Z,9.79
2022-11-07T01:52:18.453Z,9.82
2022-11-07T01:56:26.075Z,9.87
2022-11-07T02:00:32.644Z,9.90
2022-11-07T02:04:37.070Z,9.92
2022-11-07T02:08:43.246Z,9.96
2022-11-07T02:12:46.560Z,9.97
2022-11-07T02:16:51.489Z,10.01
2022-11-07T02:20:57.778Z,10.04
2022-11-07T02:25:05.535Z,10.04
2022-11-07T02:29:11.008Z,10.03
2022-11-07T02:33:22.287Z,10.02
2022-11-07T02:37:31.782Z,10.00
2022-11-07T02:41:36.966Z,9.99
2022-11-07T02:45:44.023Z,9.97
2022-11-07T02:49:47.215Z,9.94
2022-11-07T02:53:50.711Z,9.91
2022-11-07T02:57:55.690Z,9.89
2022-11-07T03:01:58.824Z,9.87
2022-11-07T03:06:02.999Z,9.83
2022-11-07T03:10:07.056Z,9.81
2022-11-07T03:14:12.065Z,9.79
2022-11-07T03:18:15.661Z,9.76
2022-11-07T03:22:19.204Z,9.74
2022-11-07T03:26:22.937Z,9.73
2022-11-07T03:30:27.705Z,9.72
2022-11-07T03:34:31.558Z,9.72
2022-11-07T03:38:35.007Z,9.73
2022-11-07T03:42:41.435Z,9.73
2022-11-07T03:46:46.196Z,9.73
2022-11-07T03:50:49.165Z,9.74
2022-11-07T03:54:52.548Z,9.75
2022-11-07T03:58:56.210Z,9.76
2022-11-07T04:03:04.975Z,9.77
2022-11-07T04:07:08.480Z,9.78
2022-11-07T04:11:31.942Z,9.79
2022-11-07T04:15:52.626Z,9.81
2022-11-07T04:19:58.306Z,9.83
2022-11-07T04:24:03.317Z,9.85
2022-11-07T04:28:07.220Z,9.88
2022-11-07T04:32:10.156Z,9.88
2022-11-07T04:36:14.879Z,9.83
2022-11-07T04:40:19.529Z,9.79
2022-11-07T04:44:22.601Z,9.77
2022-11-07T04:48:25.650Z,9.77
2022-11-07T04:52:30.603Z,9.83
2022-11-07T04:56:35.700Z,9.83
2022-11-07T05:00:39.356Z,9.88
2022-11-07T05:04:43.012Z,9.93
2022-11-07T05:08:47.696Z,9.98
2022-11-07T05:12:51.770Z,10.07
2022-11-07T05:16:56.951Z,10.16
2022-11-07T05:21:00.737Z,10.21
2022-11-07T05:25:14.123Z,10.26
2022-11-07T05:29:17.175Z,10.33
2022-11-07T05:33:21.057Z,10.40
2022-11-07T05:37:24.208Z,10.47
2022-11-07T05:41:29.112Z,10.55
2022-11-07T05:45:33.498Z,10.61
2022-11-07T05:49:37.022Z,10.65
2022-11-07T05:53:40.300Z,10.68
2022-11-07T05:57:46.777Z,10.71
2022-11-07T06:01:51.490Z,10.74
2022-11-07T06:05:54.572Z,10.76
2022-11-07T06:09:58.484Z,10.79
2022-11-07T06:14:03.453Z,10.82
2022-11-07T06:18:08.772Z,10.83
2022-11-07T06:22:12.271Z,10.82
2022-11-07T06:26:15.585Z,10.84
2022-11-07T06:30:20.169Z,10.85
2022-11-07T06:34:23.226Z,10.87
2022-11-07T06:38:26.249Z,10.90
2022-11-07T06:42:29.351Z,10.94
2022-11-07T06:46:34.122Z,11.01
2022-11-07T06:50:37.718Z,11.01
2022-11-07T06:54:41.004Z,11.10
2022-11-07T06:58:44.302Z,11.14
2022-11-07T07:02:58.283Z,11.08
2022-11-07T07:07:01.978Z,11.22
2022-11-07T07:11:06.611Z,11.26
2022-11-07T07:15:10.748Z,11.30
2022-11-07T07:19:16.099Z,11.34
2022-11-07T07:23:21.438Z,11.39
2022-11-07T07:27:24.971Z,11.45
2022-11-07T07:31:32.349Z,11.54
2022-11-07T07:35:36.690Z,11.63
2022-11-07T07:39:40.186Z,11.73
2022-11-07T07:43:43.521Z,11.83
2022-11-07T07:47:47.130Z,11.95
2022-11-07T07:51:51.916Z,12.08
2022-11-07T07:55:58.374Z,12.20
2022-11-07T08:00:02.191Z,12.30
2022-11-07T08:04:05.289Z,12.38
2022-11-07T08:08:10.298Z,12.45
2022-11-07T08:12:15.548Z,12.58
2022-11-07T08:16:19.035Z,12.75
2022-11-07T08:20:25.265Z,12.89
2022-11-07T08:24:29.851Z,13.01
2022-11-07T08:28:36.467Z,13.03
2022-11-07T08:32:39.581Z,13.05
2022-11-07T08:36:42.965Z,13.16
2022-11-07T08:40:47.905Z,13.54
2022-11-07T08:44:51.206Z,14.04
2022-11-07T08:48:54.718Z,14.64
2022-11-07T08:53:02.958Z,15.30
2022-11-07T08:57:08.406Z,15.92
2022-11-07T09:01:12.348Z,16.45
2022-11-07T09:05:15.850Z,16.89
2022-11-07T09:09:19.444Z,17.37
2022-11-07T09:13:24.568Z,17.80
2022-11-07T09:17:29.240Z,18.19
2022-11-07T09:21:32.347Z,18.57
2022-11-07T09:25:37.181Z,18.91
2022-11-07T09:29:42.186Z,19.22
2022-11-07T09:33:45.659Z,19.47
2022-11-07T09:37:49.139Z,19.62
2022-11-07T09:42:01.053Z,19.80
2022-11-07T09:46:19.779Z,20.01
2022-11-07T09:50:31.087Z,20.13
2022-11-07T09:54:39.014Z,20.12
2022-11-07T09:58:45.013Z,19.99
2022-11-07T10:02:52.135Z,19.80
2022-11-07T10:07:01.987Z,19.66
2022-11-07T10:11:13.711Z,19.61
2022-11-07T10:15:26.330Z,19.63
2022-11-07T10:19:41.655Z,19.65
2022-11-07T10:24:01.897Z,19.73
2022-11-07T10:28:16.257Z,19.89
2022-11-07T10:32:25.015Z,20.13
2022-11-07T10:36:31.671Z,20.34
2022-11-07T10:40:39.902Z,20.52
2022-11-07T10:44:44.690Z,20.60
2022-11-07T10:48:56.848Z,20.65
2022-11-07T10:53:05.728Z,20.69
2022-11-07T10:57:14.476Z,20.81
2022-11-07T11:01:25.969Z,20.96
2022-11-07T11:05:34.502Z,21.13
2022-11-07T11:09:39.831Z,21.36
2022-11-07T11:13:43.394Z,21.50
2022-11-07T11:17:47.796Z,21.52
2022-11-07T11:21:53.492Z,21.43
2022-11-07T11:26:03.663Z,21.27
2022-11-07T11:30:09.161Z,21.11
2022-11-07T11:34:19.278Z,21.03
2022-11-07T11:38:26.197Z,20.97
2022-11-07T11:42:38.623Z,20.90
2022-11-07T11:46:48.091Z,20.82
2022-11-07T11:50:56.511Z,20.78
2022-11-07T11:55:02.052Z,20.81
2022-11-07T11:59:36.341Z,20.96
2022-11-07T12:03:59.483Z,21.14
2022-11-07T12:08:21.311Z,21.29
2022-11-07T12:12:31.279Z,21.32
2022-11-07T12:16:44.384Z,21.26
2022-11-07T12:20:57.221Z,21.26
2022-11-07T12:25:08.368Z,21.33
2022-11-07T12:29:25.699Z,21.39
2022-11-07T12:33:38.867Z,21.43
2022-11-07T12:38:03.848Z,21.40
2022-11-07T12:42:13.420Z,21.40
2022-11-07T12:46:27.489Z,21.42
2022-11-07T12:50:43.210Z,21.39
2022-11-07T12:54:51.585Z,21.37
2022-11-07T12:58:55.755Z,21.34
2022-11-07T13:03:20.112Z,21.32
2022-11-07T13:07:33.586Z,21.28
2022-11-07T13:11:44.469Z,21.27
2022-11-07T13:16:14.211Z,21.34
2022-11-07T13:20:27.280Z,21.52
2022-11-07T13:24:32.835Z,21.70
2022-11-07T13:28:41.421Z,21.83
2022-11-07T13:32:46.242Z,21.84
2022-11-07T13:36:51.080Z,21.77
2022-11-07T13:40:59.064Z,21.63
2022-11-07T13:45:17.763Z,21.43
2022-11-07T13:49:25.212Z,21.21
2022-11-07T13:53:36.129Z,21.02
2022-11-07T13:57:42.917Z,20.87
2022-11-07T14:01:47.423Z,20.82
2022-11-07T14:05:51.098Z,20.86
2022-11-07T14:09:58.932Z,20.99
2022-11-07T14:14:03.836Z,21.18
2022-11-07T14:18:08.428Z,21.37
2022-11-07T14:22:24.204Z,21.53
2022-11-07T14:26:30.913Z,21.61
2022-11-07T14:30:36.312Z,21.61
2022-11-07T14:34:46.608Z,21.47
2022-11-07T14:38:51.406Z,21.26
2022-11-07T14:42:57.829Z,20.97
2022-11-07T14:47:02.363Z,20.65
2022-11-07T14:51:06.113Z,20.27
2022-11-07T14:55:19.030Z,19.89
2022-11-07T14:59:24.016Z,19.54
2022-11-07T15:03:35.186Z,19.10
2022-11-07T15:07:48.678Z,18.67
2022-11-07T15:11:59.063Z,18.28
2022-11-07T15:16:05.060Z,17.97
2022-11-07T15:20:22.320Z,17.71
2022-11-07T15:24:39.147Z,17.49
2022-11-07T15:28:47.517Z,17.30
2022-11-07T15:32:51.054Z,17.13
2022-11-07T15:36:56.289Z,16.96
2022-11-07T15:40:59.887Z,16.80
2022-11-07T15:45:02.926Z,16.62
2022-11-07T15:49:07.138Z,16.46
2022-11-07T15:53:18.180Z,16.32
2022-11-07T15:57:21.807Z,16.16
2022-11-07T16:01:25.065Z,16.03
2022-11-07T16:05:28.679Z,15.86
2022-11-07T16:09:34.722Z,15.68
2022-11-07T16:13:38.176Z,15.49
2022-11-07T16:17:42.050Z,15.31
2022-11-07T16:21:45.444Z,15.13
2022-11-07T16:25:52.749Z,14.98
2022-11-07T16:29:56.240Z,14.80
2022-11-07T16:33:59.376Z,14.65
2022-11-07T16:38:02.405Z,14.52
2022-11-07T16:42:07.594Z,14.39
2022-11-07T16:46:15.055Z,14.29
2022-11-07T16:50:19.065Z,14.18
2022-11-07T16:54:22.521Z,14.09
2022-11-07T16:58:31.327Z,14.00
2022-11-07T17:02:34.903Z,13.86
2022-11-07T17:06:39.412Z,13.70
2022-11-07T17:10:42.874Z,13.54
2022-11-07T17:14:47.451Z,13.40
2022-11-07T17:18:51.242Z,13.28
2022-11-07T17:22:54.472Z,13.18
2022-11-07T17:26:58.235Z,13.07
2022-11-07T17:31:02.804Z,12.99
2022-11-07T17:35:30.608Z,12.88
2022-11-07T17:39:30.107Z,12.78
2022-11-07T17:43:33.113Z,12.70
2022-11-07T17:47:38.360Z,12.62
2022-11-07T17:51:42.671Z,12.58
2022-11-07T17:55:47.011Z,12.49
2022-11-07T17:59:51.130Z,12.50
2022-11-07T18:03:57.019Z,12.50
2022-11-07T18:08:00.075Z,12.48
2022-11-07T18:12:03.504Z,12.43
2022-11-07T18:16:10.481Z,12.43
2022-11-07T18:20:15.421Z,12.34
2022-11-07T18:24:18.472Z,12.30
2022-11-07T18:28:22.201Z,12.26
2022-11-07T18:32:25.346Z,12.20
2022-11-07T18:36:33.659Z,12.18
2022-11-07T18:40:36.652Z,12.12
2022-11-07T18:44:40.034Z,12.06
2022-11-07T18:48:43.796Z,11.99
2022-11-07T18:52:49.713Z,11.94
2022-11-07T18:56:52.911Z,11.88
2022-11-07T19:00:56.948Z,11.79
2022-11-07T19:05:00.677Z,11.73
2022-11-07T19:09:05.802Z,11.64
2022-11-07T19:13:09.029Z,11.52
2022-11-07T19:17:12.574Z,11.40
2022-11-07T19:21:19.854Z,11.37
2022-11-07T19:25:24.482Z,11.34
2022-11-07T19:29:28.276Z,11.35
2022-11-07T19:33:31.508Z,11.34
2022-11-07T19:37:35.202Z,11.35
2022-11-07T19:41:39.831Z,11.34
2022-11-07T19:45:45.112Z,11.30
2022-11-07T19:49:48.612Z,11.28
2022-11-07T19:53:59.050Z,11.27
2022-11-07T19:58:04.544Z,11.19
2022-11-07T20:02:31.878Z,11.14
2022-11-07T20:06:36.589Z,11.18
2022-11-07T20:10:40.549Z,11.21
2022-11-07T20:14:45.290Z,11.25
2022-11-07T20:18:49.598Z,11.31
2022-11-07T20:22:53.022Z,11.34
2022-11-07T20:26:56.764Z,11.33
2022-11-07T20:31:01.280Z,11.27
2022-11-07T20:35:04.809Z,11.20
2022-11-07T20:39:08.739Z,11.12
2022-11-07T20:43:15.947Z,11.02
2022-11-07T20:47:21.923Z,10.92
2022-11-07T20:51:26.825Z,10.82
2022-11-07T20:55:30.476Z,10.72
2022-11-07T20:59:34.133Z,10.63
2022-11-07T21:03:39.620Z,10.54
2022-11-07T21:07:45.315Z,10.44
2022-11-07T21:11:48.521Z,10.34
2022-11-07T21:15:52.427Z,10.24
2022-11-07T21:19:57.396Z,10.15
2022-11-07T21:24:02.346Z,10.06
2022-11-07T21:28:08.557Z,10.00
2022-11-07T21:32:12.176Z,9.94
2022-11-07T21:36:19.341Z,9.93
2022-11-07T21:40:22.906Z,9.88
2022-11-07T21:44:26.238Z,9.85
2022-11-07T21:48:30.954Z,9.82
2022-11-07T21:52:35.507Z,9.78
2022-11-07T21:56:43.811Z,9.72
2022-11-07T22:00:48.026Z,9.65
2022-11-07T22:04:52.052Z,9.61
2022-11-07T22:08:56.514Z,9.59
2022-11-07T22:13:00.877Z,9.58
2022-11-07T22:17:04.931Z,9.56
2022-11-07T22:21:10.632Z,9.54
2022-11-07T22:25:15.776Z,9.53
2022-11-07T22:29:18.710Z,9.50
2022-11-07T22:33:21.759Z,9.43
2022-11-07T22:37:26.228Z,9.32
2022-11-07T22:41:31.166Z,9.23
2022-11-07T22:45:34.673Z,9.16
2022-11-07T22:49:38.228Z,9.10
2022-11-07T22:53:41.939Z,9.02
2022-11-07T23:01:47.167Z,8.95
2022-11-07T23:05:50.646Z,8.95
2022-11-07T23:09:59.480Z,8.93
2022-11-07T23:14:06.020Z,8.93
2022-11-07T23:18:11.006Z,8.93
2022-11-07T23:22:14.365Z,8.94
2022-11-07T23:26:19.354Z,8.97
2022-11-07T23:30:22.966Z,9.00
2022-11-07T23:34:27.717Z,9.02
2022-11-07T23:38:31.366Z,9.03
2022-11-07T23:42:34.860Z,9.06
2022-11-07T23:46:55.473Z,9.04
2022-11-07T23:51:05.153Z,9.03
2022-11-07T23:55:26.562Z,9.04
2022-11-07T23:59:47.233Z,9.04
